Alderton, Washington
Current Conditions -  °F | °C
As of 1:58 AM on Friday 28 Nov 2014 (Local Time) from KTCM Reporting Station
Broken Clouds Broken Clouds  
Wind Chill: 12°   Ceiling: 13000
Heat Index: 12°   Visibility: 10mi
Dew Point: 11°   Wind: 21mph
Humidity: 91%   Direction: 190°S
Pressure: 29.67"   Gusts: NA
Location:  47.1905°N, 122.328°W
Report Text: KTCM 280958Z AUTO 19018KT 10SM SCT033 BKN130 12/11 A2967 RMK AO2 PK WND 18026/19 RAB0925E0945 CIG 011 RWY34 SLP051 P0001 T01210107 $
Loading
Personal Weather Stations






























Interactive Weather Map New forecast layout! Learn more

10-Day Weather Forecast

Advertisements
Track Severe Weather on mobile